createdAt,value
2019-02-15T00:00:08.153Z,0.00
2019-02-15T00:01:08.065Z,0.00
2019-02-15T00:02:07.977Z,0.00
2019-02-15T00:03:07.889Z,0.00
2019-02-15T00:04:07.800Z,0.00
2019-02-15T00:05:07.713Z,0.00
2019-02-15T00:06:07.628Z,0.00
2019-02-15T00:07:07.537Z,0.00
2019-02-15T00:08:07.448Z,0.00
2019-02-15T00:09:07.363Z,0.00
2019-02-15T00:10:07.282Z,0.00
2019-02-15T00:11:07.188Z,0.00
2019-02-15T00:12:07.097Z,0.00
2019-02-15T00:13:13.345Z,0.00
2019-02-15T00:14:06.926Z,0.00
2019-02-15T00:15:06.841Z,0.00
2019-02-15T00:16:06.751Z,0.00
2019-02-15T00:17:06.663Z,0.00
2019-02-15T00:18:06.573Z,0.00
2019-02-15T00:19:06.491Z,0.00
2019-02-15T00:20:06.402Z,0.00
2019-02-15T00:21:06.314Z,0.00
2019-02-15T00:22:06.229Z,0.00
2019-02-15T00:23:06.139Z,0.00
2019-02-15T00:24:06.049Z,0.00
2019-02-15T00:25:05.965Z,0.00
2019-02-15T00:26:05.877Z,0.00
2019-02-15T00:27:05.789Z,0.00
2019-02-15T00:28:05.702Z,0.00
2019-02-15T00:29:05.613Z,0.00
2019-02-15T00:30:05.531Z,0.00
2019-02-15T00:31:05.443Z,0.00
2019-02-15T00:32:05.353Z,0.00
2019-02-15T00:33:05.263Z,0.00
2019-02-15T00:34:05.176Z,0.00
2019-02-15T00:35:05.096Z,0.00
2019-02-15T00:36:05.003Z,0.00
2019-02-15T00:37:04.915Z,0.00
2019-02-15T00:38:04.826Z,0.00
2019-02-15T00:39:04.744Z,0.00
2019-02-15T00:40:04.651Z,0.00
2019-02-15T00:41:04.565Z,0.00
2019-02-15T00:42:04.478Z,0.00
2019-02-15T00:43:04.385Z,0.00
2019-02-15T00:44:04.303Z,0.00
2019-02-15T00:45:04.213Z,0.00
2019-02-15T00:46:04.127Z,0.00
2019-02-15T00:47:04.040Z,0.00
2019-02-15T00:48:03.952Z,0.00
2019-02-15T00:49:03.866Z,0.00
2019-02-15T00:50:03.776Z,0.00
2019-02-15T00:51:03.692Z,0.00
2019-02-15T00:52:03.603Z,0.00
2019-02-15T00:53:03.515Z,0.00
2019-02-15T00:54:03.427Z,0.00
2019-02-15T00:55:03.340Z,0.00
2019-02-15T00:56:03.252Z,0.00
2019-02-15T00:57:03.162Z,0.00
2019-02-15T00:58:03.076Z,0.00
2019-02-15T00:59:02.987Z,0.00
2019-02-15T01:00:02.897Z,0.00
2019-02-15T01:01:02.816Z,0.00
2019-02-15T01:02:02.727Z,0.00
2019-02-15T01:03:02.639Z,0.00
2019-02-15T01:04:02.551Z,0.00
2019-02-15T01:05:02.466Z,0.00
2019-02-15T01:06:02.379Z,0.00
2019-02-15T01:07:02.283Z,0.00
2019-02-15T01:08:02.199Z,0.00
2019-02-15T01:09:02.108Z,0.00
2019-02-15T01:10:02.042Z,0.00
2019-02-15T01:11:01.936Z,0.00
2019-02-15T01:12:01.847Z,0.00
2019-02-15T01:13:01.765Z,0.00
2019-02-15T01:14:01.675Z,0.00
2019-02-15T01:15:01.590Z,0.00
2019-02-15T01:16:01.502Z,0.00
2019-02-15T01:17:01.410Z,0.00
2019-02-15T01:18:01.320Z,0.00
2019-02-15T01:19:01.235Z,0.00
2019-02-15T01:20:01.150Z,0.00
2019-02-15T01:21:01.065Z,0.00
2019-02-15T01:22:00.976Z,0.00
2019-02-15T01:23:00.884Z,0.00
2019-02-15T01:24:00.798Z,0.00
2019-02-15T01:25:00.709Z,0.00
2019-02-15T01:26:00.625Z,0.00
2019-02-15T01:27:00.540Z,0.00
2019-02-15T01:28:00.449Z,0.00
2019-02-15T01:29:00.358Z,0.00
2019-02-15T01:30:00.282Z,0.00
2019-02-15T01:31:00.185Z,0.00
2019-02-15T01:32:00.097Z,0.00
2019-02-15T01:33:00.009Z,0.00
2019-02-15T01:33:59.921Z,0.00
2019-02-15T01:34:59.833Z,0.00
2019-02-15T01:35:59.747Z,0.00
2019-02-15T01:36:59.658Z,0.00
2019-02-15T01:37:59.570Z,0.00
2019-02-15T01:38:59.480Z,0.00
2019-02-15T01:39:59.394Z,0.00
2019-02-15T01:40:59.310Z,0.00
2019-02-15T01:41:59.219Z,0.00
2019-02-15T01:42:59.132Z,0.00
2019-02-15T01:43:59.046Z,0.00
2019-02-15T01:44:58.961Z,0.00
2019-02-15T01:45:58.867Z,0.00
2019-02-15T01:46:58.790Z,0.00
2019-02-15T01:47:58.770Z,0.00
2019-02-15T01:48:58.604Z,0.00
2019-02-15T01:49:58.521Z,0.00
2019-02-15T01:50:58.430Z,0.00
2019-02-15T01:51:58.341Z,0.00
2019-02-15T01:52:58.255Z,0.00
2019-02-15T01:53:58.165Z,0.00
2019-02-15T01:54:58.081Z,0.00
2019-02-15T01:55:57.990Z,0.00
2019-02-15T01:56:57.901Z,0.00
2019-02-15T01:57:57.818Z,0.00
2019-02-15T01:58:57.732Z,0.00
2019-02-15T01:59:57.640Z,0.00
2019-02-15T02:00:57.553Z,0.00
2019-02-15T02:01:57.468Z,0.00
2019-02-15T02:02:57.373Z,0.00
2019-02-15T02:03:57.284Z,0.00
2019-02-15T02:04:57.199Z,0.00
2019-02-15T02:05:57.112Z,0.00
2019-02-15T02:06:57.027Z,0.00
2019-02-15T02:07:56.936Z,0.00
2019-02-15T02:08:56.853Z,0.00
2019-02-15T02:09:56.764Z,0.00
2019-02-15T02:10:56.674Z,0.00
2019-02-15T02:11:56.585Z,0.00
2019-02-15T02:12:56.500Z,0.00
2019-02-15T02:13:56.410Z,0.00
2019-02-15T02:14:56.322Z,0.00
2019-02-15T02:15:56.236Z,0.00
2019-02-15T02:16:56.141Z,0.00
2019-02-15T02:17:56.061Z,0.00
2019-02-15T02:18:55.968Z,0.00
2019-02-15T02:19:55.881Z,0.00
2019-02-15T02:20:55.799Z,0.00
2019-02-15T02:21:55.715Z,0.00
2019-02-15T02:22:55.625Z,0.00
2019-02-15T02:23:55.533Z,0.00
2019-02-15T02:24:55.444Z,0.00
2019-02-15T02:25:55.355Z,0.00
2019-02-15T02:26:55.267Z,0.00
2019-02-15T02:27:55.178Z,0.00
2019-02-15T02:28:55.101Z,0.00
2019-02-15T02:29:55.008Z,0.00
2019-02-15T02:30:54.918Z,0.00
2019-02-15T02:31:54.826Z,0.00
2019-02-15T02:32:54.739Z,0.00
2019-02-15T02:33:54.654Z,0.00
2019-02-15T02:34:54.566Z,0.00
2019-02-15T02:35:54.475Z,0.00
2019-02-15T02:36:54.387Z,0.00
2019-02-15T02:37:54.301Z,0.00
2019-02-15T02:38:54.212Z,0.00
2019-02-15T02:39:54.124Z,0.00
2019-02-15T02:40:54.035Z,0.00
2019-02-15T02:41:53.950Z,0.00
2019-02-15T02:42:53.873Z,0.00
2019-02-15T02:43:59.546Z,0.00
2019-02-15T02:44:53.684Z,0.00
2019-02-15T02:45:53.594Z,0.00
2019-02-15T02:46:53.510Z,0.00
2019-02-15T02:47:53.419Z,0.00
2019-02-15T02:48:53.348Z,0.00
2019-02-15T02:49:53.241Z,0.00
2019-02-15T02:50:53.163Z,0.00
2019-02-15T02:51:53.068Z,0.00
2019-02-15T02:52:52.979Z,0.00
2019-02-15T02:53:52.895Z,0.00
2019-02-15T02:54:52.820Z,0.00
2019-02-15T02:55:52.714Z,0.00
2019-02-15T02:56:52.628Z,0.00
2019-02-15T02:57:52.541Z,0.00
2019-02-15T02:58:52.448Z,0.00
2019-02-15T02:59:52.363Z,0.00
2019-02-15T03:00:52.275Z,0.00
2019-02-15T03:01:52.195Z,0.00
2019-02-15T03:02:52.100Z,0.00
2019-02-15T03:03:52.010Z,0.00
2019-02-15T03:04:51.922Z,0.00
2019-02-15T03:05:51.832Z,0.00
2019-02-15T03:06:51.750Z,0.00
2019-02-15T03:07:51.661Z,0.00
2019-02-15T03:08:51.571Z,0.00
2019-02-15T03:09:51.483Z,0.00
2019-02-15T03:10:51.394Z,0.00
2019-02-15T03:11:51.310Z,0.00
2019-02-15T03:12:51.217Z,0.00
2019-02-15T03:13:51.133Z,0.00
2019-02-15T03:14:51.041Z,0.00
2019-02-15T03:15:50.956Z,0.00
2019-02-15T03:16:50.864Z,0.00
2019-02-15T03:17:50.776Z,0.00
2019-02-15T03:18:50.690Z,0.00
2019-02-15T03:19:50.605Z,0.00
2019-02-15T03:20:50.513Z,0.00
2019-02-15T03:21:50.429Z,0.00
2019-02-15T03:22:50.338Z,0.00
2019-02-15T03:23:50.255Z,0.00
2019-02-15T03:24:50.160Z,0.00
2019-02-15T03:25:50.079Z,0.00
2019-02-15T03:26:49.991Z,0.00
2019-02-15T03:27:49.900Z,0.00
2019-02-15T03:28:49.807Z,0.00
2019-02-15T03:29:49.721Z,0.00
2019-02-15T03:30:49.631Z,0.00
2019-02-15T03:31:49.547Z,0.00
2019-02-15T03:32:49.461Z,0.00
2019-02-15T03:33:49.367Z,0.00
2019-02-15T03:34:49.282Z,0.00
2019-02-15T03:35:49.192Z,0.00
2019-02-15T03:36:49.130Z,0.00
2019-02-15T03:37:49.022Z,0.00
2019-02-15T03:38:48.929Z,0.00
2019-02-15T03:39:48.838Z,0.00
2019-02-15T03:40:48.752Z,0.00
2019-02-15T03:41:48.661Z,0.00
2019-02-15T03:42:48.577Z,0.00
2019-02-15T03:43:48.483Z,0.00
2019-02-15T03:44:48.399Z,0.00
2019-02-15T03:45:48.318Z,0.00
2019-02-15T03:46:48.222Z,0.00
2019-02-15T03:47:48.131Z,0.00
2019-02-15T03:48:48.039Z,0.00
2019-02-15T03:49:47.954Z,0.00
2019-02-15T03:50:47.873Z,0.00
2019-02-15T03:51:47.780Z,0.00
2019-02-15T03:52:47.701Z,0.00
2019-02-15T03:53:47.601Z,0.00
2019-02-15T03:54:47.514Z,0.00
2019-02-15T03:55:47.432Z,0.00
2019-02-15T03:56:47.332Z,0.00
2019-02-15T03:57:47.247Z,0.00
2019-02-15T03:58:47.157Z,0.00
2019-02-15T03:59:47.070Z,0.00
2019-02-15T04:00:46.980Z,0.00
2019-02-15T04:01:46.896Z,0.00
2019-02-15T04:02:46.804Z,0.00
2019-02-15T04:03:46.712Z,0.00
2019-02-15T04:04:46.638Z,0.00
2019-02-15T04:05:46.540Z,0.00
2019-02-15T04:06:46.450Z,0.00
2019-02-15T04:07:46.364Z,0.00
2019-02-15T04:08:46.275Z,0.00
2019-02-15T04:09:46.187Z,0.00
2019-02-15T04:10:46.101Z,0.00
2019-02-15T04:11:46.011Z,0.00
2019-02-15T04:12:45.926Z,0.00
2019-02-15T04:13:45.833Z,0.00
2019-02-15T04:14:45.744Z,0.00
2019-02-15T04:15:45.655Z,0.00
2019-02-15T04:16:45.568Z,0.00
2019-02-15T04:17:45.476Z,0.00
2019-02-15T04:18:45.390Z,0.00
2019-02-15T04:19:45.320Z,0.00
2019-02-15T04:20:45.224Z,0.00
2019-02-15T04:21:45.125Z,0.00
2019-02-15T04:22:45.042Z,0.00
2019-02-15T04:23:45.044Z,0.00
2019-02-15T04:24:44.857Z,0.00
2019-02-15T04:25:44.773Z,0.00
2019-02-15T04:26:44.685Z,0.00
2019-02-15T04:27:44.593Z,0.00
2019-02-15T04:28:44.509Z,0.00
2019-02-15T04:29:44.428Z,0.00
2019-02-15T04:30:44.334Z,0.00
2019-02-15T04:31:44.238Z,0.00
2019-02-15T04:32:44.155Z,0.00
2019-02-15T04:33:44.067Z,0.00
2019-02-15T04:34:43.976Z,0.00
2019-02-15T04:35:43.889Z,0.00
2019-02-15T04:36:43.800Z,0.00
2019-02-15T04:37:43.711Z,0.00
2019-02-15T04:38:43.624Z,0.00
2019-02-15T04:39:43.541Z,0.00
2019-02-15T04:40:43.447Z,0.00
2019-02-15T04:41:43.355Z,0.00
2019-02-15T04:42:43.269Z,0.00
2019-02-15T04:43:43.184Z,0.00
2019-02-15T04:44:43.285Z,0.00
2019-02-15T04:45:43.005Z,0.00
2019-02-15T04:46:42.917Z,0.00
2019-02-15T04:47:42.829Z,0.00
2019-02-15T04:48:42.740Z,0.00
2019-02-15T04:49:42.644Z,0.00
2019-02-15T04:50:42.563Z,0.00
2019-02-15T04:51:42.479Z,0.00
2019-02-15T04:52:42.388Z,0.00
2019-02-15T04:53:42.296Z,0.00
2019-02-15T04:54:42.206Z,0.00
2019-02-15T04:55:42.122Z,0.00
2019-02-15T04:56:42.030Z,0.00
2019-02-15T04:57:41.943Z,0.00
2019-02-15T04:58:41.855Z,0.00
2019-02-15T04:59:41.759Z,0.00
2019-02-15T05:00:41.675Z,0.00
2019-02-15T05:01:41.589Z,0.00
2019-02-15T05:02:41.501Z,0.00
2019-02-15T05:03:41.412Z,0.00
2019-02-15T05:04:41.324Z,0.00
2019-02-15T05:05:41.237Z,0.00
2019-02-15T05:06:41.150Z,0.00
2019-02-15T05:07:41.057Z,0.00
2019-02-15T05:08:40.983Z,0.00
2019-02-15T05:09:40.884Z,0.00
2019-02-15T05:10:40.792Z,0.00
2019-02-15T05:11:40.703Z,0.00
2019-02-15T05:12:40.615Z,0.00
2019-02-15T05:13:40.524Z,0.00
2019-02-15T05:14:40.436Z,0.00
2019-02-15T05:15:40.348Z,0.00
2019-02-15T05:16:40.262Z,0.00
2019-02-15T05:17:40.173Z,0.00
2019-02-15T05:18:40.086Z,0.00
2019-02-15T05:19:39.994Z,0.00
2019-02-15T05:20:39.905Z,0.00
2019-02-15T05:21:39.819Z,0.00
2019-02-15T05:22:39.731Z,0.00
2019-02-15T05:23:39.641Z,0.00
2019-02-15T05:24:39.557Z,0.00
2019-02-15T05:25:39.472Z,0.00
2019-02-15T05:26:39.371Z,0.00
2019-02-15T05:27:39.284Z,0.00
2019-02-15T05:28:39.194Z,0.00
2019-02-15T05:29:39.111Z,0.00
2019-02-15T05:30:39.021Z,0.00
2019-02-15T05:31:38.939Z,0.00
2019-02-15T05:32:38.841Z,0.00
2019-02-15T05:33:38.755Z,0.00
2019-02-15T05:34:38.663Z,0.00
2019-02-15T05:35:38.577Z,0.00
2019-02-15T05:36:38.491Z,0.00
2019-02-15T05:39:41.775Z,0.00
2019-02-15T05:40:19.049Z,0.00
2019-02-15T05:42:23.335Z,0.00
2019-02-15T05:43:23.231Z,0.00
2019-02-15T05:45:39.393Z,0.00
2019-02-15T05:46:39.288Z,0.00
2019-02-15T05:48:43.567Z,0.00
2019-02-15T05:49:43.471Z,0.00
2019-02-15T05:51:47.799Z,0.00
2019-02-15T05:52:47.651Z,0.00
2019-02-15T05:54:51.933Z,0.00
2019-02-15T05:55:51.920Z,0.00
2019-02-15T05:57:56.103Z,0.00
2019-02-15T05:58:56.016Z,0.00
2019-02-15T06:01:00.294Z,0.00
2019-02-15T06:02:00.192Z,0.00
2019-02-15T06:04:04.465Z,0.00
2019-02-15T06:05:04.371Z,0.00
2019-02-15T06:07:08.672Z,0.00
2019-02-15T06:08:08.561Z,0.00
2019-02-15T06:10:12.870Z,0.00
2019-02-15T06:11:12.750Z,0.00
2019-02-15T06:13:16.549Z,0.00
2019-02-15T06:14:16.451Z,0.00
2019-02-15T06:16:09.687Z,0.00
2019-02-15T06:17:09.593Z,0.00
2019-02-15T06:19:13.855Z,5.63
2019-02-15T06:20:13.770Z,5.63
2019-02-15T06:21:13.681Z,5.63
2019-02-15T06:22:13.592Z,5.63
2019-02-15T06:23:13.506Z,5.63
2019-02-15T06:24:13.416Z,5.63
2019-02-15T06:25:13.333Z,11.25
2019-02-15T06:26:13.241Z,11.25
2019-02-15T06:27:13.142Z,11.25
2019-02-15T06:28:13.058Z,11.25
2019-02-15T06:29:12.968Z,11.25
2019-02-15T06:30:12.887Z,16.88
2019-02-15T06:31:12.793Z,16.88
2019-02-15T06:32:12.723Z,16.88
2019-02-15T06:33:12.613Z,16.88
2019-02-15T06:34:12.528Z,16.88
2019-02-15T06:35:12.432Z,22.50
2019-02-15T06:36:12.344Z,22.50
2019-02-15T06:37:12.261Z,22.50
2019-02-15T06:38:12.172Z,22.50
2019-02-15T06:39:12.089Z,28.13
2019-02-15T06:40:11.997Z,28.13
2019-02-15T06:41:12.548Z,28.13
2019-02-15T06:42:11.817Z,28.13
2019-02-15T06:43:11.727Z,33.75
2019-02-15T06:44:11.639Z,33.75
2019-02-15T06:45:11.549Z,33.75
2019-02-15T06:46:11.464Z,33.75
2019-02-15T06:47:11.372Z,33.75
2019-02-15T06:48:11.290Z,39.38
2019-02-15T06:49:11.193Z,39.38
2019-02-15T06:50:11.103Z,39.38
2019-02-15T06:51:11.018Z,39.38
2019-02-15T06:52:10.945Z,45.00
2019-02-15T06:53:10.842Z,45.00
2019-02-15T06:54:10.753Z,45.00
2019-02-15T06:55:10.665Z,45.00
2019-02-15T06:56:10.581Z,45.00
2019-02-15T06:57:10.488Z,50.63
2019-02-15T06:58:10.394Z,50.63
2019-02-15T06:59:10.309Z,50.63
2019-02-15T07:00:10.226Z,50.63
2019-02-15T07:01:10.134Z,50.63
2019-02-15T07:02:10.044Z,56.25
2019-02-15T07:03:09.957Z,56.25
2019-02-15T07:04:09.865Z,56.25
2019-02-15T07:05:09.778Z,56.25
2019-02-15T07:06:09.690Z,56.25
2019-02-15T07:07:09.602Z,61.88
2019-02-15T07:08:09.513Z,61.88
2019-02-15T07:09:09.425Z,61.88
2019-02-15T07:10:09.335Z,61.88
2019-02-15T07:11:09.247Z,67.50
2019-02-15T07:12:09.161Z,67.50
2019-02-15T07:13:09.074Z,67.50
2019-02-15T07:14:08.982Z,67.50
2019-02-15T07:15:08.893Z,73.13
2019-02-15T07:16:08.806Z,73.13
2019-02-15T07:17:08.720Z,73.13
2019-02-15T07:18:08.629Z,73.13
2019-02-15T07:19:08.538Z,73.13
2019-02-15T07:20:08.457Z,78.75
2019-02-15T07:21:08.368Z,78.75
2019-02-15T07:22:08.277Z,78.75
2019-02-15T07:23:08.185Z,78.75
2019-02-15T07:24:08.101Z,78.75
2019-02-15T07:25:08.012Z,84.38
2019-02-15T07:26:07.926Z,84.38
2019-02-15T07:27:07.833Z,84.38
2019-02-15T07:28:07.744Z,84.38
2019-02-15T07:29:07.655Z,84.38
2019-02-15T07:30:07.570Z,84.38
2019-02-15T07:31:07.483Z,90.00
2019-02-15T07:32:07.389Z,90.00
2019-02-15T07:33:07.301Z,90.00
2019-02-15T07:34:07.212Z,90.00
2019-02-15T07:35:07.126Z,90.00
2019-02-15T07:36:07.073Z,90.00
2019-02-15T07:37:06.949Z,90.00
2019-02-15T07:38:06.859Z,95.63
2019-02-15T07:39:06.775Z,95.63
2019-02-15T07:40:06.685Z,95.63
2019-02-15T07:41:06.597Z,95.63
2019-02-15T07:42:06.507Z,95.63
2019-02-15T07:43:06.422Z,101.25
2019-02-15T07:44:06.336Z,101.25
2019-02-15T07:45:06.248Z,101.25
2019-02-15T07:46:06.158Z,101.25
2019-02-15T07:47:06.067Z,101.25
2019-02-15T07:48:05.980Z,101.25
2019-02-15T07:49:05.897Z,101.25
2019-02-15T07:50:05.802Z,101.25
2019-02-15T07:51:09.502Z,106.88
2019-02-15T07:52:05.626Z,106.88
2019-02-15T07:53:05.537Z,106.88
2019-02-15T07:54:05.453Z,106.88
2019-02-15T07:55:05.365Z,106.88
2019-02-15T07:56:05.274Z,106.88
2019-02-15T07:57:05.183Z,112.50
2019-02-15T07:58:05.103Z,112.50
2019-02-15T07:59:05.009Z,112.50
2019-02-15T08:00:04.923Z,112.50
2019-02-15T08:01:04.832Z,112.50
2019-02-15T08:02:04.748Z,112.50
2019-02-15T08:03:04.656Z,112.50
2019-02-15T08:04:04.570Z,112.50
2019-02-15T08:05:04.480Z,118.13
2019-02-15T08:06:04.394Z,118.13
2019-02-15T08:07:04.306Z,118.13
2019-02-15T08:08:04.228Z,118.13
2019-02-15T08:09:04.130Z,118.13
2019-02-15T08:10:04.039Z,118.13
2019-02-15T08:11:03.951Z,118.13
2019-02-15T08:12:03.863Z,118.13
2019-02-15T08:13:03.773Z,118.13
2019-02-15T08:14:03.688Z,118.13
2019-02-15T08:15:03.599Z,118.13
2019-02-15T08:16:03.511Z,123.75
2019-02-15T08:17:03.423Z,123.75
2019-02-15T08:18:03.338Z,123.75
2019-02-15T08:19:03.249Z,123.75
2019-02-15T08:20:03.163Z,123.75
2019-02-15T08:21:03.073Z,123.75
2019-02-15T08:22:02.987Z,123.75
2019-02-15T08:23:02.899Z,123.75
2019-02-15T08:24:02.815Z,123.75
2019-02-15T08:25:02.975Z,129.38
2019-02-15T08:26:02.638Z,129.38
2019-02-15T08:27:02.548Z,129.38
2019-02-15T08:28:02.462Z,129.38
2019-02-15T08:29:02.374Z,129.38
2019-02-15T08:30:02.304Z,129.38
2019-02-15T08:31:02.197Z,129.38
2019-02-15T08:32:02.110Z,129.38
2019-02-15T08:33:02.020Z,129.38
2019-02-15T08:34:01.942Z,129.38
2019-02-15T08:35:01.849Z,129.38
2019-02-15T08:36:01.763Z,129.38
2019-02-15T08:37:01.673Z,129.38
2019-02-15T08:38:01.599Z,129.38
2019-02-15T08:39:01.501Z,135.00
2019-02-15T08:40:01.410Z,135.00
2019-02-15T08:41:01.326Z,135.00
2019-02-15T08:42:04.350Z,135.00
2019-02-15T08:43:01.148Z,135.00
2019-02-15T08:44:01.061Z,135.00
2019-02-15T08:45:00.975Z,135.00
2019-02-15T08:46:03.320Z,135.00
2019-02-15T08:47:00.798Z,135.00
2019-02-15T08:48:00.712Z,135.00
2019-02-15T08:49:00.625Z,135.00
2019-02-15T08:50:00.537Z,135.00
2019-02-15T08:51:00.451Z,135.00
2019-02-15T08:52:00.363Z,135.00
2019-02-15T08:53:00.277Z,135.00
2019-02-15T08:54:00.190Z,140.63
2019-02-15T08:55:00.280Z,140.63
2019-02-15T08:56:00.014Z,140.63
2019-02-15T08:56:59.926Z,140.63
2019-02-15T08:57:59.841Z,140.63
2019-02-15T08:58:59.755Z,140.63
2019-02-15T08:59:59.668Z,140.63
2019-02-15T09:00:59.580Z,140.63
2019-02-15T09:01:59.493Z,140.63
2019-02-15T09:02:59.405Z,140.63
2019-02-15T09:03:59.322Z,140.63
2019-02-15T09:04:59.229Z,146.25
2019-02-15T09:05:59.144Z,146.25
2019-02-15T09:06:59.058Z,146.25
2019-02-15T09:07:58.972Z,146.25
2019-02-15T09:08:58.882Z,146.25
2019-02-15T09:09:58.798Z,146.25
2019-02-15T09:10:58.715Z,146.25
2019-02-15T09:11:58.624Z,146.25
2019-02-15T09:12:58.538Z,146.25
2019-02-15T09:13:58.448Z,146.25
2019-02-15T09:14:58.366Z,146.25
2019-02-15T09:15:58.282Z,146.25
2019-02-15T09:16:58.185Z,151.88
2019-02-15T09:17:58.104Z,151.88
2019-02-15T09:18:58.016Z,146.25
2019-02-15T09:19:57.929Z,151.88
2019-02-15T09:20:57.842Z,151.88
2019-02-15T09:21:57.759Z,151.88
2019-02-15T09:22:57.674Z,151.88
2019-02-15T09:23:57.586Z,151.88
2019-02-15T09:24:57.500Z,151.88
2019-02-15T09:25:57.410Z,151.88
2019-02-15T09:26:57.322Z,151.88
2019-02-15T09:27:57.242Z,157.50
2019-02-15T09:28:57.148Z,157.50
2019-02-15T09:29:57.063Z,157.50
2019-02-15T09:30:56.976Z,163.13
2019-02-15T09:31:56.891Z,163.13
2019-02-15T09:32:56.804Z,157.50
2019-02-15T09:33:56.717Z,157.50
2019-02-15T09:34:56.632Z,163.13
2019-02-15T09:35:56.547Z,163.13
2019-02-15T09:36:56.459Z,168.75
2019-02-15T09:37:56.374Z,163.13
2019-02-15T09:38:56.285Z,163.13
2019-02-15T09:39:56.205Z,168.75
2019-02-15T09:40:56.117Z,168.75
2019-02-15T09:41:56.031Z,168.75
2019-02-15T09:42:55.941Z,168.75
2019-02-15T09:43:55.855Z,163.13
2019-02-15T09:44:55.771Z,168.75
2019-02-15T09:45:55.684Z,163.13
2019-02-15T09:46:55.602Z,168.75
2019-02-15T09:47:55.515Z,168.75
2019-02-15T09:48:55.427Z,168.75
2019-02-15T09:49:55.338Z,168.75
2019-02-15T09:50:55.253Z,168.75
2019-02-15T09:51:55.641Z,174.38
2019-02-15T09:52:55.082Z,174.38
2019-02-15T09:53:54.999Z,180.00
2019-02-15T09:54:54.908Z,174.38
2019-02-15T09:55:54.823Z,180.00
2019-02-15T09:56:54.736Z,180.00
2019-02-15T09:57:54.649Z,180.00
2019-02-15T09:58:54.560Z,180.00
2019-02-15T09:59:54.476Z,185.63
2019-02-15T10:00:54.393Z,185.63
2019-02-15T10:01:54.305Z,191.25
2019-02-15T10:02:54.219Z,191.25
2019-02-15T10:03:55.294Z,191.25
2019-02-15T10:04:54.046Z,191.25
2019-02-15T10:05:53.960Z,196.88
2019-02-15T10:06:53.877Z,196.88
2019-02-15T10:07:53.791Z,196.88
2019-02-15T10:08:53.708Z,196.88
2019-02-15T10:09:53.621Z,196.88
2019-02-15T10:10:53.531Z,196.88
2019-02-15T10:11:53.449Z,202.50
2019-02-15T10:12:53.362Z,202.50
2019-02-15T10:13:53.277Z,208.13
2019-02-15T10:14:53.192Z,213.75
2019-02-15T10:15:53.108Z,213.75
2019-02-15T10:16:53.018Z,213.75
2019-02-15T10:17:52.937Z,213.75
2019-02-15T10:18:52.856Z,213.75
2019-02-15T10:19:52.767Z,213.75
2019-02-15T10:20:52.678Z,219.38
2019-02-15T10:21:52.592Z,219.38
2019-02-15T10:22:52.506Z,219.38
2019-02-15T10:23:52.424Z,225.00
2019-02-15T10:24:52.597Z,219.38
2019-02-15T10:25:52.250Z,219.38
2019-02-15T10:26:52.170Z,225.00
2019-02-15T10:27:52.081Z,230.63
2019-02-15T10:28:52.003Z,236.25
2019-02-15T10:29:51.913Z,303.75
2019-02-15T10:30:51.828Z,270.00
2019-02-15T10:31:51.746Z,281.25
2019-02-15T10:32:51.657Z,365.63
2019-02-15T10:33:51.571Z,540.00
2019-02-15T10:34:51.485Z,714.38
2019-02-15T11:19:18.772Z,900.00
2019-02-15T11:20:18.710Z,765.00
2019-02-15T12:16:32.110Z,4770.00
2019-02-15T12:17:32.022Z,4871.25
2019-02-15T12:19:36.410Z,3701.25
2019-02-15T12:20:36.311Z,4421.25
2019-02-15T12:22:40.666Z,5388.75
2019-02-15T12:23:40.514Z,5253.75
2019-02-15T12:25:44.881Z,4983.75
2019-02-15T12:26:44.759Z,4725.00
2019-02-15T12:28:49.101Z,4623.75
2019-02-15T12:29:49.023Z,4876.88
2019-02-15T12:31:53.430Z,4905.00
2019-02-15T12:32:53.317Z,4837.50
2019-02-15T12:36:40.779Z,5186.25
2019-02-15T12:37:40.651Z,4533.75
2019-02-15T12:39:45.062Z,1620.00
2019-02-15T12:40:44.897Z,703.13
2019-02-15T12:42:49.255Z,601.88
2019-02-15T12:43:49.147Z,596.25
2019-02-15T12:45:53.569Z,613.13
2019-02-15T12:46:53.408Z,658.13
2019-02-15T12:48:57.809Z,2593.13
2019-02-15T12:49:57.691Z,4117.50
2019-02-15T12:52:02.002Z,4961.25
2019-02-15T12:53:01.917Z,4550.63
2019-02-15T12:55:07.267Z,5107.50
2019-02-15T12:56:07.163Z,5045.63
2019-02-15T12:58:14.191Z,3892.50
2019-02-15T12:59:13.954Z,3380.63
2019-02-15T13:01:19.287Z,1220.63
2019-02-15T13:02:19.208Z,646.88
2019-02-15T13:04:23.593Z,579.38
2019-02-15T13:05:23.454Z,562.50
2019-02-15T13:07:16.775Z,545.63
2019-02-15T13:08:16.639Z,545.63
2019-02-15T13:10:21.016Z,534.38
2019-02-15T13:11:20.898Z,528.75
2019-02-15T13:13:26.860Z,523.13
2019-02-15T13:14:25.140Z,523.13
2019-02-15T13:16:29.482Z,517.50
2019-02-15T13:17:29.390Z,523.13
2019-02-15T13:19:33.754Z,517.50
2019-02-15T13:20:33.632Z,517.50
2019-02-15T13:22:37.966Z,517.50
2019-02-15T13:23:37.864Z,511.88
2019-02-15T13:25:42.281Z,511.88
2019-02-15T13:26:42.110Z,511.88
2019-02-15T13:28:47.471Z,506.25
2019-02-15T13:29:47.346Z,506.25
2019-02-15T13:31:51.722Z,506.25
2019-02-15T13:32:51.576Z,506.25
2019-02-15T13:34:55.997Z,506.25
2019-02-15T13:35:55.806Z,500.63
2019-02-15T13:38:01.209Z,495.00
2019-02-15T13:39:01.129Z,495.00
2019-02-15T13:40:01.059Z,495.00
2019-02-15T13:41:00.985Z,495.00
2019-02-15T13:42:00.910Z,495.00
2019-02-15T13:43:00.836Z,489.38
2019-02-15T13:44:00.761Z,489.38
2019-02-15T13:45:01.150Z,489.38
2019-02-15T13:46:00.648Z,489.38
2019-02-15T13:47:00.540Z,483.75
2019-02-15T13:48:00.464Z,489.38
2019-02-15T13:49:00.392Z,483.75
2019-02-15T13:50:00.415Z,478.13
2019-02-15T13:51:00.239Z,478.13
2019-02-15T13:52:00.171Z,483.75
2019-02-15T13:53:00.091Z,478.13
2019-02-15T13:54:00.017Z,478.13
2019-02-15T13:54:59.941Z,472.50
2019-02-15T13:55:59.867Z,472.50
2019-02-15T13:56:59.793Z,472.50
2019-02-15T13:57:59.714Z,466.88
2019-02-15T13:58:59.643Z,466.88
2019-02-15T13:59:59.567Z,461.25
2019-02-15T14:00:59.492Z,461.25
2019-02-15T14:01:59.413Z,461.25
2019-02-15T14:02:59.346Z,461.25
2019-02-15T14:03:59.268Z,455.63
2019-02-15T14:04:59.192Z,455.63
2019-02-15T14:05:59.128Z,455.63
2019-02-15T14:06:59.098Z,450.00
2019-02-15T14:07:58.964Z,450.00
2019-02-15T14:08:58.893Z,450.00
2019-02-15T14:09:58.818Z,455.63
2019-02-15T14:10:58.742Z,450.00
2019-02-15T14:11:58.665Z,444.38
2019-02-15T14:12:58.591Z,444.38
2019-02-15T14:13:58.530Z,438.75
2019-02-15T14:14:58.441Z,438.75
2019-02-15T14:15:58.369Z,433.13
2019-02-15T14:16:58.289Z,438.75
2019-02-15T14:17:58.214Z,433.13
2019-02-15T14:18:58.141Z,427.50
2019-02-15T14:19:58.085Z,421.88
2019-02-15T14:20:57.988Z,421.88
2019-02-15T14:21:57.912Z,421.88
2019-02-15T14:22:57.898Z,421.88
2019-02-15T14:23:57.770Z,421.88
2019-02-15T14:24:57.688Z,421.88
2019-02-15T14:25:57.611Z,421.88
2019-02-15T14:26:57.539Z,416.25
2019-02-15T14:27:57.467Z,416.25
2019-02-15T14:28:57.389Z,416.25
2019-02-15T14:29:57.311Z,416.25
2019-02-15T14:30:57.240Z,416.25
2019-02-15T14:31:57.163Z,416.25
2019-02-15T14:32:57.087Z,416.25
2019-02-15T14:33:57.010Z,416.25
2019-02-15T14:34:56.934Z,416.25
2019-02-15T14:35:56.863Z,416.25
2019-02-15T14:36:56.784Z,416.25
2019-02-15T14:37:56.711Z,416.25
2019-02-15T14:38:56.637Z,416.25
2019-02-15T14:39:56.566Z,421.88
2019-02-15T14:40:56.487Z,438.75
2019-02-15T14:41:56.411Z,489.38
2019-02-15T14:42:56.335Z,461.25
2019-02-15T14:43:56.264Z,495.00
2019-02-15T14:44:56.186Z,1569.38
2019-02-15T14:45:56.117Z,3420.00
2019-02-15T14:46:56.035Z,2160.00
2019-02-15T14:47:55.964Z,478.13
2019-02-15T14:48:55.890Z,421.88
2019-02-15T14:49:55.816Z,416.25
2019-02-15T14:50:55.743Z,405.00
2019-02-15T14:51:55.669Z,405.00
2019-02-15T14:52:55.594Z,399.38
2019-02-15T14:53:55.519Z,393.75
2019-02-15T14:54:55.449Z,388.13
2019-02-15T14:55:55.374Z,382.50
2019-02-15T14:56:55.295Z,376.88
2019-02-15T14:57:55.230Z,376.88
2019-02-15T14:58:55.149Z,376.88
2019-02-15T14:59:55.076Z,376.88
2019-02-15T15:00:54.997Z,382.50
2019-02-15T15:01:54.929Z,382.50
2019-02-15T15:02:54.862Z,393.75
2019-02-15T15:03:54.777Z,399.38
2019-02-15T15:04:54.714Z,511.88
2019-02-15T15:05:55.153Z,1946.25
2019-02-15T15:06:54.552Z,3616.88
2019-02-15T15:07:54.488Z,3915.00
2019-02-15T15:08:54.465Z,3628.13
2019-02-15T15:09:54.335Z,2424.38
2019-02-15T15:10:54.271Z,911.25
2019-02-15T15:11:54.196Z,405.00
2019-02-15T15:12:54.116Z,382.50
2019-02-15T15:13:54.050Z,399.38
2019-02-15T15:14:53.983Z,1378.13
2019-02-15T15:15:53.901Z,1923.75